sensor_id;sensor_type;location;lat;lon;timestamp;pressure;altitude;pressure_sealevel;temperature;humidity
49945;BME280;35838;49.134;9.212;2023-02-11T00:00:12;101976.59;;;0.08;73.88
49945;BME280;35838;49.134;9.212;2023-02-11T00:01:43;101970.50;;;0.06;73.82
49945;BME280;35838;49.134;9.212;2023-02-11T00:03:17;101973.06;;;0.06;74.08
49945;BME280;35838;49.134;9.212;2023-02-11T00:04:50;101969.19;;;-0.01;73.93
49945;BME280;35838;49.134;9.212;2023-02-11T00:06:24;101970.16;;;-0.11;74.35
49945;BME280;35838;49.134;9.212;2023-02-11T00:08:01;101967.75;;;-0.09;74.31
49945;BME280;35838;49.134;9.212;2023-02-11T00:09:35;101968.06;;;-0.17;74.55
49945;BME280;35838;49.134;9.212;2023-02-11T00:11:11;101963.63;;;-0.19;74.70
49945;BME280;35838;49.134;9.212;2023-02-11T00:12:45;101973.28;;;-0.15;75.09
49945;BME280;35838;49.134;9.212;2023-02-11T00:14:18;101975.94;;;-0.13;74.77
49945;BME280;35838;49.134;9.212;2023-02-11T00:15:52;101966.84;;;-0.10;74.61
49945;BME280;35838;49.134;9.212;2023-02-11T00:17:26;101967.72;;;-0.21;74.84
49945;BME280;35838;49.134;9.212;2023-02-11T00:19:00;101965.50;;;-0.28;75.09
49945;BME280;35838;49.134;9.212;2023-02-11T00:20:37;101970.94;;;-0.24;75.44
49945;BME280;35838;49.134;9.212;2023-02-11T00:22:08;101971.28;;;-0.19;75.23
49945;BME280;35838;49.134;9.212;2023-02-11T00:23:44;101971.94;;;-0.10;75.04
49945;BME280;35838;49.134;9.212;2023-02-11T00:25:18;101977.28;;;-0.07;74.90
49945;BME280;35838;49.134;9.212;2023-02-11T00:26:52;101979.28;;;-0.03;74.75
49945;BME280;35838;49.134;9.212;2023-02-11T00:28:26;101980.94;;;-0.03;74.73
49945;BME280;35838;49.134;9.212;2023-02-11T00:29:57;101983.84;;;0.02;74.38
49945;BME280;35838;49.134;9.212;2023-02-11T00:31:31;101980.03;;;-0.04;74.50
49945;BME280;35838;49.134;9.212;2023-02-11T00:33:05;101975.75;;;-0.05;74.61
49945;BME280;35838;49.134;9.212;2023-02-11T00:34:36;101980.28;;;-0.01;74.28
49945;BME280;35838;49.134;9.212;2023-02-11T00:36:11;101980.84;;;-0.05;74.46
49945;BME280;35838;49.134;9.212;2023-02-11T00:37:46;101974.06;;;-0.04;74.44
49945;BME280;35838;49.134;9.212;2023-02-11T00:39:22;101979.06;;;-0.06;74.14
49945;BME280;35838;49.134;9.212;2023-02-11T00:40:56;101970.16;;;-0.11;74.32
49945;BME280;35838;49.134;9.212;2023-02-11T00:42:29;101961.31;;;-0.16;74.40
49945;BME280;35838;49.134;9.212;2023-02-11T00:44:05;101961.06;;;-0.19;74.48
49945;BME280;35838;49.134;9.212;2023-02-11T00:45:36;101961.84;;;-0.20;74.94
49945;BME280;35838;49.134;9.212;2023-02-11T00:47:09;101956.75;;;-0.20;74.94
49945;BME280;35838;49.134;9.212;2023-02-11T00:48:43;101958.97;;;-0.13;74.48
49945;BME280;35838;49.134;9.212;2023-02-11T00:50:17;101948.41;;;-0.18;74.29
49945;BME280;35838;49.134;9.212;2023-02-11T00:51:50;101940.44;;;-0.22;74.86
49945;BME280;35838;49.134;9.212;2023-02-11T00:53:24;101932.31;;;-0.28;74.63
49945;BME280;35838;49.134;9.212;2023-02-11T00:54:57;101932.78;;;-0.34;74.83
49945;BME280;35838;49.134;9.212;2023-02-11T00:56:31;101934.88;;;-0.40;75.31
49945;BME280;35838;49.134;9.212;2023-02-11T00:58:02;101935.22;;;-0.48;75.10
49945;BME280;35838;49.134;9.212;2023-02-11T00:59:36;101941.44;;;-0.44;75.10
49945;BME280;35838;49.134;9.212;2023-02-11T01:01:09;101939.75;;;-0.43;75.32
49945;BME280;35838;49.134;9.212;2023-02-11T01:02:43;101947.72;;;-0.63;75.62
49945;BME280;35838;49.134;9.212;2023-02-11T01:04:17;101952.13;;;-0.72;76.10
49945;BME280;35838;49.134;9.212;2023-02-11T01:05:48;101953.41;;;-0.55;76.20
49945;BME280;35838;49.134;9.212;2023-02-11T01:07:21;101942.88;;;-0.36;75.33
49945;BME280;35838;49.134;9.212;2023-02-11T01:08:52;101937.00;;;-0.35;75.15
49945;BME280;35838;49.134;9.212;2023-02-11T01:10:28;101935.34;;;-0.22;74.88
49945;BME280;35838;49.134;9.212;2023-02-11T01:12:02;101934.09;;;-0.27;74.68
49945;BME280;35838;49.134;9.212;2023-02-11T01:13:36;101940.66;;;-0.31;74.37
49945;BME280;35838;49.134;9.212;2023-02-11T01:15:11;101940.31;;;-0.36;74.87
49945;BME280;35838;49.134;9.212;2023-02-11T01:16:46;101938.66;;;-0.23;74.73
49945;BME280;35838;49.134;9.212;2023-02-11T01:18:19;101936.56;;;-0.17;74.58
49945;BME280;35838;49.134;9.212;2023-02-11T01:19:53;101934.69;;;-0.20;74.34
49945;BME280;35838;49.134;9.212;2023-02-11T01:21:24;101940.75;;;-0.29;74.76
49945;BME280;35838;49.134;9.212;2023-02-11T01:22:58;101937.75;;;-0.24;74.64
49945;BME280;35838;49.134;9.212;2023-02-11T01:24:29;101949.06;;;-0.08;74.48
49945;BME280;35838;49.134;9.212;2023-02-11T01:26:05;101938.53;;;-0.13;74.77
49945;BME280;35838;49.134;9.212;2023-02-11T01:27:39;101946.66;;;-0.07;74.56
49945;BME280;35838;49.134;9.212;2023-02-11T01:29:12;101939.53;;;-0.11;74.46
49945;BME280;35838;49.134;9.212;2023-02-11T01:30:46;101942.66;;;-0.15;74.80
49945;BME280;35838;49.134;9.212;2023-02-11T01:32:17;101940.66;;;-0.19;74.98
49945;BME280;35838;49.134;9.212;2023-02-11T01:33:50;101940.88;;;-0.16;75.00
49945;BME280;35838;49.134;9.212;2023-02-11T01:35:24;101944.44;;;-0.14;74.73
49945;BME280;35838;49.134;9.212;2023-02-11T01:36:56;101942.66;;;-0.03;74.51
49945;BME280;35838;49.134;9.212;2023-02-11T01:38:30;101940.00;;;-0.05;74.15
49945;BME280;35838;49.134;9.212;2023-02-11T01:40:06;101936.66;;;-0.27;74.20
49945;BME280;35838;49.134;9.212;2023-02-11T01:41:42;101939.53;;;-0.23;74.55
49945;BME280;35838;49.134;9.212;2023-02-11T01:43:16;101938.00;;;-0.33;75.02
49945;BME280;35838;49.134;9.212;2023-02-11T01:44:47;101933.34;;;-0.50;75.12
49945;BME280;35838;49.134;9.212;2023-02-11T01:46:27;101933.53;;;-0.35;75.30
49945;BME280;35838;49.134;9.212;2023-02-11T01:48:01;101938.00;;;-0.33;75.41
49945;BME280;35838;49.134;9.212;2023-02-11T01:49:32;101935.34;;;-0.22;75.46
49945;BME280;35838;49.134;9.212;2023-02-11T01:51:07;101938.09;;;-0.31;75.33
49945;BME280;35838;49.134;9.212;2023-02-11T01:52:40;101941.09;;;-0.37;75.59
49945;BME280;35838;49.134;9.212;2023-02-11T01:54:16;101937.75;;;-0.24;75.87
49945;BME280;35838;49.134;9.212;2023-02-11T01:56:04;101933.44;;;-0.13;75.68
49945;BME280;35838;49.134;9.212;2023-02-11T01:57:53;101939.53;;;-0.11;75.33
49945;BME280;35838;49.134;9.212;2023-02-11T01:59:29;101935.88;;;-0.03;75.22
49945;BME280;35838;49.134;9.212;2023-02-11T02:01:02;101932.19;;;0.06;75.07
49945;BME280;35838;49.134;9.212;2023-02-11T02:02:43;101936.19;;;0.14;74.64
49945;BME280;35838;49.134;9.212;2023-02-11T02:04:18;101927.53;;;0.12;74.27
49945;BME280;35838;49.134;9.212;2023-02-11T02:05:52;101913.66;;;0.20;74.25
49945;BME280;35838;49.134;9.212;2023-02-11T02:07:29;101917.41;;;0.25;73.95
49945;BME280;35838;49.134;9.212;2023-02-11T02:09:04;101898.41;;;0.22;73.51
49945;BME280;35838;49.134;9.212;2023-02-11T02:10:39;101894.41;;;0.25;73.61
49945;BME280;35838;49.134;9.212;2023-02-11T02:12:14;101905.72;;;0.29;73.61
49945;BME280;35838;49.134;9.212;2023-02-11T02:13:47;101887.81;;;-0.08;74.50
49945;BME280;35838;49.134;9.212;2023-02-11T02:15:23;101890.03;;;0.11;74.76
49945;BME280;35838;49.134;9.212;2023-02-11T02:16:57;101896.63;;;0.21;74.50
49945;BME280;35838;49.134;9.212;2023-02-11T02:18:32;101892.84;;;0.27;74.15
49945;BME280;35838;49.134;9.212;2023-02-11T02:20:17;101891.31;;;0.29;74.25
49945;BME280;35838;49.134;9.212;2023-02-11T02:22:05;101886.19;;;0.29;73.91
49945;BME280;35838;49.134;9.212;2023-02-11T02:25:44;101875.66;;;0.25;74.38
49945;BME280;35838;49.134;9.212;2023-02-11T02:27:33;101871.38;;;0.37;74.23
49945;BME280;35838;49.134;9.212;2023-02-11T02:29:21;101875.22;;;0.19;74.56
49945;BME280;35838;49.134;9.212;2023-02-11T02:31:10;101876.03;;;-0.06;75.24
49945;BME280;35838;49.134;9.212;2023-02-11T02:32:52;101869.19;;;-0.19;75.83
49945;BME280;35838;49.134;9.212;2023-02-11T02:34:27;101863.84;;;0.02;75.59
49945;BME280;35838;49.134;9.212;2023-02-11T02:36:05;101863.47;;;0.09;75.32
49945;BME280;35838;49.134;9.212;2023-02-11T02:37:40;101866.91;;;0.09;75.35
49945;BME280;35838;49.134;9.212;2023-02-11T02:39:16;101861.69;;;0.08;75.20
49945;BME280;35838;49.134;9.212;2023-02-11T02:40:51;101863.41;;;-0.17;75.63
49945;BME280;35838;49.134;9.212;2023-02-11T02:42:24;101862.09;;;-0.35;76.25
49945;BME280;35838;49.134;9.212;2023-02-11T02:43:58;101857.22;;;-0.44;77.03
49945;BME280;35838;49.134;9.212;2023-02-11T02:45:32;101842.47;;;-0.48;77.56
49945;BME280;35838;49.134;9.212;2023-02-11T02:47:05;101845.34;;;-0.43;77.51
49945;BME280;35838;49.134;9.212;2023-02-11T02:48:42;101845.81;;;-0.37;77.45
49945;BME280;35838;49.134;9.212;2023-02-11T02:50:13;101848.75;;;-0.19;77.42
49945;BME280;35838;49.134;9.212;2023-02-11T02:51:57;101843.84;;;-0.04;76.98
49945;BME280;35838;49.134;9.212;2023-02-11T02:53:37;101845.44;;;-0.18;76.70
49945;BME280;35838;49.134;9.212;2023-02-11T02:55:17;101841.22;;;-0.18;76.91
49945;BME280;35838;49.134;9.212;2023-02-11T02:56:55;101843.44;;;-0.34;77.55
49945;BME280;35838;49.134;9.212;2023-02-11T03:00:26;101841.84;;;0.04;77.17
49945;BME280;35838;49.134;9.212;2023-02-11T03:02:04;101838.31;;;0.02;76.52
49945;BME280;35838;49.134;9.212;2023-02-11T03:03:45;101833.06;;;0.12;76.16
49945;BME280;35838;49.134;9.212;2023-02-11T03:05:21;101848.97;;;-0.04;76.35
49945;BME280;35838;49.134;9.212;2023-02-11T03:06:59;101848.31;;;-0.13;76.50
49945;BME280;35838;49.134;9.212;2023-02-11T03:08:36;101844.31;;;-0.10;76.72
49945;BME280;35838;49.134;9.212;2023-02-11T03:10:12;101839.84;;;-0.01;77.06
49945;BME280;35838;49.134;9.212;2023-02-11T03:11:47;101837.72;;;0.18;76.42
49945;BME280;35838;49.134;9.212;2023-02-11T03:13:22;101830.66;;;0.27;76.01
49945;BME280;35838;49.134;9.212;2023-02-11T03:14:57;101827.72;;;0.46;74.82
49945;BME280;35838;49.134;9.212;2023-02-11T03:16:31;101823.41;;;0.58;74.11
49945;BME280;35838;49.134;9.212;2023-02-11T03:18:08;101820.69;;;0.69;73.42
49945;BME280;35838;49.134;9.212;2023-02-11T03:19:47;101827.50;;;0.82;72.62
49945;BME280;35838;49.134;9.212;2023-02-11T03:21:19;101827.63;;;0.83;72.32
49945;BME280;35838;49.134;9.212;2023-02-11T03:22:53;101834.78;;;0.89;72.50
49945;BME280;35838;49.134;9.212;2023-02-11T03:24:30;101829.78;;;0.90;73.00
49945;BME280;35838;49.134;9.212;2023-02-11T03:26:06;101837.66;;;0.93;73.15
49945;BME280;35838;49.134;9.212;2023-02-11T03:27:42;101841.19;;;0.96;73.40
49945;BME280;35838;49.134;9.212;2023-02-11T03:29:21;101834.13;;;0.91;73.44
49945;BME280;35838;49.134;9.212;2023-02-11T03:30:54;101834.00;;;0.90;73.74
49945;BME280;35838;49.134;9.212;2023-02-11T03:32:31;101836.56;;;0.90;73.75
49945;BME280;35838;49.134;9.212;2023-02-11T03:34:09;101839.91;;;0.89;73.51
49945;BME280;35838;49.134;9.212;2023-02-11T03:35:49;101839.34;;;0.93;72.88
49945;BME280;35838;49.134;9.212;2023-02-11T03:37:26;101839.63;;;0.98;72.16
49945;BME280;35838;49.134;9.212;2023-02-11T03:39:01;101845.16;;;1.04;72.00
49945;BME280;35838;49.134;9.212;2023-02-11T03:40:34;101844.16;;;1.02;72.17
49945;BME280;35838;49.134;9.212;2023-02-11T03:42:08;101840.94;;;1.04;71.94
49945;BME280;35838;49.134;9.212;2023-02-11T03:43:41;101840.81;;;0.89;72.37
49945;BME280;35838;49.134;9.212;2023-02-11T03:45:17;101838.34;;;0.91;72.45
49945;BME280;35838;49.134;9.212;2023-02-11T03:46:49;101845.44;;;0.95;72.80
49945;BME280;35838;49.134;9.212;2023-02-11T03:48:25;101834.81;;;1.02;72.93
49945;BME280;35838;49.134;9.212;2023-02-11T03:50:00;101840.16;;;1.05;73.03
49945;BME280;35838;49.134;9.212;2023-02-11T03:51:38;101834.91;;;1.04;73.18
49945;BME280;35838;49.134;9.212;2023-02-11T03:53:12;101839.03;;;1.02;73.31
49945;BME280;35838;49.134;9.212;2023-02-11T03:54:47;101832.53;;;0.93;73.57
49945;BME280;35838;49.134;9.212;2023-02-11T03:56:24;101829.50;;;0.99;73.32
49945;BME280;35838;49.134;9.212;2023-02-11T03:57:59;101831.19;;;0.99;73.52
49945;BME280;35838;49.134;9.212;2023-02-11T03:59:48;101822.59;;;0.98;73.46
49945;BME280;35838;49.134;9.212;2023-02-11T04:01:21;101822.91;;;1.03;73.32
49945;BME280;35838;49.134;9.212;2023-02-11T04:02:55;101824.78;;;0.92;73.21
49945;BME280;35838;49.134;9.212;2023-02-11T04:04:29;101835.69;;;0.89;73.39
49945;BME280;35838;49.134;9.212;2023-02-11T04:06:02;101833.13;;;0.89;73.64
49945;BME280;35838;49.134;9.212;2023-02-11T04:07:36;101840.59;;;0.86;72.71
49945;BME280;35838;49.134;9.212;2023-02-11T04:09:10;101838.25;;;1.03;72.37
49945;BME280;35838;49.134;9.212;2023-02-11T04:10:44;101838.88;;;1.12;71.70
49945;BME280;35838;49.134;9.212;2023-02-11T04:12:18;101838.69;;;1.22;70.93
49945;BME280;35838;49.134;9.212;2023-02-11T04:13:51;101836.03;;;1.21;70.45
49945;BME280;35838;49.134;9.212;2023-02-11T04:15:25;101835.72;;;1.30;70.21
49945;BME280;35838;49.134;9.212;2023-02-11T04:16:59;101838.09;;;1.40;69.48
49945;BME280;35838;49.134;9.212;2023-02-11T04:18:30;101840.88;;;1.43;69.26
49945;BME280;35838;49.134;9.212;2023-02-11T04:20:04;101836.13;;;1.49;68.89
49945;BME280;35838;49.134;9.212;2023-02-11T04:21:37;101839.38;;;1.47;68.85
49945;BME280;35838;49.134;9.212;2023-02-11T04:23:14;101838.69;;;1.49;68.85
49945;BME280;35838;49.134;9.212;2023-02-11T04:24:47;101832.19;;;1.54;68.31
49945;BME280;35838;49.134;9.212;2023-02-11T04:26:21;101835.72;;;1.56;68.13
49945;BME280;35838;49.134;9.212;2023-02-11T04:27:54;101836.63;;;1.57;68.08
49945;BME280;35838;49.134;9.212;2023-02-11T04:29:25;101835.22;;;1.62;67.69
49945;BME280;35838;49.134;9.212;2023-02-11T04:30:59;101838.00;;;1.65;67.48
49945;BME280;35838;49.134;9.212;2023-02-11T04:32:30;101838.00;;;1.52;67.54
49945;BME280;35838;49.134;9.212;2023-02-11T04:34:04;101836.03;;;1.21;68.15
49945;BME280;35838;49.134;9.212;2023-02-11T04:35:37;101833.66;;;1.37;68.15
49945;BME280;35838;49.134;9.212;2023-02-11T04:37:11;101841.53;;;1.27;68.57
49945;BME280;35838;49.134;9.212;2023-02-11T04:38:47;101839.47;;;1.21;69.11
49945;BME280;35838;49.134;9.212;2023-02-11T04:40:18;101829.94;;;1.32;68.99
49945;BME280;35838;49.134;9.212;2023-02-11T04:41:52;101831.41;;;1.42;68.76
49945;BME280;35838;49.134;9.212;2023-02-11T04:43:26;101827.78;;;1.38;68.59
49945;BME280;35838;49.134;9.212;2023-02-11T04:44:59;101830.31;;;1.52;68.56
49945;BME280;35838;49.134;9.212;2023-02-11T04:46:31;101823.81;;;1.57;68.34
49945;BME280;35838;49.134;9.212;2023-02-11T04:48:05;101825.28;;;1.67;67.81
49945;BME280;35838;49.134;9.212;2023-02-11T04:49:38;101830.59;;;1.70;67.44
49945;BME280;35838;49.134;9.212;2023-02-11T04:51:09;101820.38;;;1.70;67.60
49945;BME280;35838;49.134;9.212;2023-02-11T04:52:43;101811.91;;;1.71;67.74
49945;BME280;35838;49.134;9.212;2023-02-11T04:54:19;101809.94;;;1.67;67.62
49945;BME280;35838;49.134;9.212;2023-02-11T04:55:53;101807.44;;;1.68;67.32
49945;BME280;35838;49.134;9.212;2023-02-11T04:57:26;101798.97;;;1.69;67.15
49945;BME280;35838;49.134;9.212;2023-02-11T04:58:57;101795.75;;;1.59;67.52
49945;BME280;35838;49.134;9.212;2023-02-11T05:00:31;101796.34;;;1.68;67.62
49945;BME280;35838;49.134;9.212;2023-02-11T05:02:02;101797.41;;;1.71;67.33
49945;BME280;35838;49.134;9.212;2023-02-11T05:03:36;101785.69;;;1.75;67.50
49945;BME280;35838;49.134;9.212;2023-02-11T05:05:10;101778.28;;;1.80;67.25
49945;BME280;35838;49.134;9.212;2023-02-11T05:06:43;101776.50;;;1.79;66.83
49945;BME280;35838;49.134;9.212;2023-02-11T05:08:17;101782.25;;;1.75;67.29
49945;BME280;35838;49.134;9.212;2023-02-11T05:09:50;101783.75;;;1.71;67.41
49945;BME280;35838;49.134;9.212;2023-02-11T05:11:24;101780.19;;;1.55;67.70
49945;BME280;35838;49.134;9.212;2023-02-11T05:12:58;101775.06;;;1.55;67.78
49945;BME280;35838;49.134;9.212;2023-02-11T05:14:29;101783.03;;;1.60;67.82
49945;BME280;35838;49.134;9.212;2023-02-11T05:16:03;101779.81;;;1.63;67.45
49945;BME280;35838;49.134;9.212;2023-02-11T05:17:36;101784.38;;;1.53;67.75
49945;BME280;35838;49.134;9.212;2023-02-11T05:19:10;101783.94;;;1.61;67.52
49945;BME280;35838;49.134;9.212;2023-02-11T05:20:44;101786.31;;;1.58;67.67
49945;BME280;35838;49.134;9.212;2023-02-11T05:22:15;101783.34;;;1.65;67.54
49945;BME280;35838;49.134;9.212;2023-02-11T05:23:49;101793.00;;;1.69;67.58
49945;BME280;35838;49.134;9.212;2023-02-11T05:25:25;101786.19;;;1.69;67.58
49945;BME280;35838;49.134;9.212;2023-02-11T05:26:59;101800.66;;;1.69;67.73
49945;BME280;35838;49.134;9.212;2023-02-11T05:28:33;101800.84;;;1.72;67.69
49945;BME280;35838;49.134;9.212;2023-02-11T05:30:07;101800.47;;;1.79;67.43
49945;BME280;35838;49.134;9.212;2023-02-11T05:31:41;101806.16;;;1.75;67.66
49945;BME280;35838;49.134;9.212;2023-02-11T05:33:13;101809.00;;;1.80;67.50
49945;BME280;35838;49.134;9.212;2023-02-11T05:34:47;101809.09;;;1.81;67.70
49945;BME280;35838;49.134;9.212;2023-02-11T05:36:20;101812.94;;;1.88;67.47
49945;BME280;35838;49.134;9.212;2023-02-11T05:37:51;101821.53;;;1.88;67.68
49945;BME280;35838;49.134;9.212;2023-02-11T05:39:25;101817.78;;;1.83;67.63
49945;BME280;35838;49.134;9.212;2023-02-11T05:41:01;101825.03;;;1.91;68.05
49945;BME280;35838;49.134;9.212;2023-02-11T05:42:35;101829.28;;;1.90;68.17
49945;BME280;35838;49.134;9.212;2023-02-11T05:44:09;101828.59;;;1.93;68.10
49945;BME280;35838;49.134;9.212;2023-02-11T05:45:42;101829.56;;;1.95;68.11
49945;BME280;35838;49.134;9.212;2023-02-11T05:47:16;101818.13;;;1.90;68.31
49945;BME280;35838;49.134;9.212;2023-02-11T05:48:49;101814.25;;;1.54;68.94
49945;BME280;35838;49.134;9.212;2023-02-11T05:50:23;101811.03;;;1.44;70.17
49945;BME280;35838;49.134;9.212;2023-02-11T05:51:57;101808.47;;;1.03;71.18
49945;BME280;35838;49.134;9.212;2023-02-11T05:53:30;101805.41;;;0.96;72.20
49945;BME280;35838;49.134;9.212;2023-02-11T05:55:04;101798.13;;;0.88;72.85
49945;BME280;35838;49.134;9.212;2023-02-11T05:56:40;101791.03;;;1.11;72.43
49945;BME280;35838;49.134;9.212;2023-02-11T05:58:14;101791.63;;;0.93;72.66
49945;BME280;35838;49.134;9.212;2023-02-11T05:59:48;101785.56;;;0.91;73.33
49945;BME280;35838;49.134;9.212;2023-02-11T06:01:21;101794.41;;;1.10;72.79
49945;BME280;35838;49.134;9.212;2023-02-11T06:02:55;101781.22;;;1.17;72.66
49945;BME280;35838;49.134;9.212;2023-02-11T06:04:29;101787.91;;;1.29;72.63
49945;BME280;35838;49.134;9.212;2023-02-11T06:06:00;101790.88;;;1.35;72.39
49945;BME280;35838;49.134;9.212;2023-02-11T06:07:33;101797.25;;;1.41;72.05
49945;BME280;35838;49.134;9.212;2023-02-11T06:09:08;101795.19;;;1.22;71.98
49945;BME280;35838;49.134;9.212;2023-02-11T06:10:43;101792.81;;;1.12;72.25
49945;BME280;35838;49.134;9.212;2023-02-11T06:12:19;101800.91;;;1.32;72.24
49945;BME280;35838;49.134;9.212;2023-02-11T06:13:53;101789.88;;;1.33;71.66
49945;BME280;35838;49.134;9.212;2023-02-11T06:15:27;101788.13;;;1.45;71.44
49945;BME280;35838;49.134;9.212;2023-02-11T06:17:00;101784.53;;;1.56;70.62
49945;BME280;35838;49.134;9.212;2023-02-11T06:18:34;101781.47;;;1.62;70.15
49945;BME280;35838;49.134;9.212;2023-02-11T06:20:08;101778.06;;;1.48;69.82
49945;BME280;35838;49.134;9.212;2023-02-11T06:21:42;101778.63;;;1.58;69.40
49945;BME280;35838;49.134;9.212;2023-02-11T06:23:15;101789.47;;;1.53;69.17
49945;BME280;35838;49.134;9.212;2023-02-11T06:24:49;101791.91;;;1.52;69.31
49945;BME280;35838;49.134;9.212;2023-02-11T06:26:23;101791.63;;;1.61;69.11
49945;BME280;35838;49.134;9.212;2023-02-11T06:27:59;101795.25;;;1.64;69.28
49945;BME280;35838;49.134;9.212;2023-02-11T06:29:33;101800.38;;;1.64;69.43
49945;BME280;35838;49.134;9.212;2023-02-11T06:31:04;101802.84;;;1.63;69.86
49945;BME280;35838;49.134;9.212;2023-02-11T06:32:39;101800.88;;;1.59;70.03
49945;BME280;35838;49.134;9.212;2023-02-11T06:34:12;101801.09;;;1.62;70.06
49945;BME280;35838;49.134;9.212;2023-02-11T06:35:46;101797.91;;;1.66;70.26
49945;BME280;35838;49.134;9.212;2023-02-11T06:37:19;101804.59;;;1.64;70.06
49945;BME280;35838;49.134;9.212;2023-02-11T06:38:53;101807.44;;;1.68;69.38
49945;BME280;35838;49.134;9.212;2023-02-11T06:40:27;101806.09;;;1.74;69.31
49945;BME280;35838;49.134;9.212;2023-02-11T06:42:01;101794.34;;;1.77;69.00
49945;BME280;35838;49.134;9.212;2023-02-11T06:43:37;101792.88;;;1.81;68.56
49945;BME280;35838;49.134;9.212;2023-02-11T06:45:11;101790.38;;;1.82;68.34
49945;BME280;35838;49.134;9.212;2023-02-11T06:46:45;101799.06;;;1.84;68.19
49945;BME280;35838;49.134;9.212;2023-02-11T06:48:18;101795.06;;;1.75;68.31
49945;BME280;35838;49.134;9.212;2023-02-11T06:49:50;101798.78;;;1.80;68.04
49945;BME280;35838;49.134;9.212;2023-02-11T06:51:23;101792.66;;;1.78;68.38
49945;BME280;35838;49.134;9.212;2023-02-11T06:52:57;101796.69;;;1.87;68.30
49945;BME280;35838;49.134;9.212;2023-02-11T06:54:31;101790.16;;;1.93;68.09
49945;BME280;35838;49.134;9.212;2023-02-11T06:56:06;101784.97;;;1.91;68.58
49945;BME280;35838;49.134;9.212;2023-02-11T06:57:40;101794.69;;;1.97;68.85
49945;BME280;35838;49.134;9.212;2023-02-11T06:59:17;101791.34;;;1.98;68.65
49945;BME280;35838;49.134;9.212;2023-02-11T07:00:50;101788.38;;;2.05;68.29
49945;BME280;35838;49.134;9.212;2023-02-11T07:02:24;101791.91;;;2.07;68.02
49945;BME280;35838;49.134;9.212;2023-02-11T07:03:58;101795.25;;;2.06;67.81
49945;BME280;35838;49.134;9.212;2023-02-11T07:05:31;101803.75;;;2.05;67.82
49945;BME280;35838;49.134;9.212;2023-02-11T07:07:08;101796.13;;;2.07;67.29
49945;BME280;35838;49.134;9.212;2023-02-11T07:08:41;101806.06;;;2.15;67.02
49945;BME280;35838;49.134;9.212;2023-02-11T07:10:15;101813.34;;;2.23;66.51
49945;BME280;35838;49.134;9.212;2023-02-11T07:11:49;101810.78;;;2.23;66.30
49945;BME280;35838;49.134;9.212;2023-02-11T07:13:22;101814.31;;;2.25;66.26
49945;BME280;35838;49.134;9.212;2023-02-11T07:14:58;101820.31;;;1.97;66.71
49945;BME280;35838;49.134;9.212;2023-02-11T07:16:32;101811.59;;;2.08;66.67
49945;BME280;35838;49.134;9.212;2023-02-11T07:18:04;101812.91;;;2.01;66.76
49945;BME280;35838;49.134;9.212;2023-02-11T07:19:37;101806.38;;;2.07;66.87
49945;BME280;35838;49.134;9.212;2023-02-11T07:21:11;101804.38;;;1.87;67.25
49945;BME280;35838;49.134;9.212;2023-02-11T07:22:45;101805.81;;;1.97;67.36
49945;BME280;35838;49.134;9.212;2023-02-11T07:24:19;101809.22;;;2.11;67.01
49945;BME280;35838;49.134;9.212;2023-02-11T07:25:52;101794.19;;;2.02;66.99
49945;BME280;35838;49.134;9.212;2023-02-11T07:27:26;101793.06;;;2.12;67.05
49945;BME280;35838;49.134;9.212;2023-02-11T07:29:00;101790.16;;;1.93;67.41
49945;BME280;35838;49.134;9.212;2023-02-11T07:30:36;101793.72;;;1.95;67.38
49945;BME280;35838;49.134;9.212;2023-02-11T07:32:07;101794.13;;;1.87;67.29
49945;BME280;35838;49.134;9.212;2023-02-11T07:33:41;101785.47;;;1.85;68.03
49945;BME280;35838;49.134;9.212;2023-02-11T07:35:15;101782.63;;;1.81;68.19
49945;BME280;35838;49.134;9.212;2023-02-11T07:36:49;101775.16;;;1.99;67.98
49945;BME280;35838;49.134;9.212;2023-02-11T07:38:22;101776.72;;;2.10;67.79
49945;BME280;35838;49.134;9.212;2023-02-11T07:39:56;101778.13;;;2.05;67.67
49945;BME280;35838;49.134;9.212;2023-02-11T07:41:29;101784.69;;;1.86;68.06
49945;BME280;35838;49.134;9.212;2023-02-11T07:43:04;101789.94;;;2.03;68.17
49945;BME280;35838;49.134;9.212;2023-02-11T07:44:39;101785.53;;;2.00;68.26
49945;BME280;35838;49.134;9.212;2023-02-11T07:46:16;101780.69;;;2.05;68.27
49945;BME280;35838;49.134;9.212;2023-02-11T07:47:49;101785.94;;;2.22;67.66
49945;BME280;35838;49.134;9.212;2023-02-11T07:49:23;101781.09;;;2.26;67.49
49945;BME280;35838;49.134;9.212;2023-02-11T07:51:03;101782.00;;;2.42;67.15
49945;BME280;35838;49.134;9.212;2023-02-11T07:52:37;101787.59;;;2.49;66.68
49945;BME280;35838;49.134;9.212;2023-02-11T07:54:10;101792.88;;;2.53;66.34
49945;BME280;35838;49.134;9.212;2023-02-11T07:55:44;101791.28;;;2.55;66.19
49945;BME280;35838;49.134;9.212;2023-02-11T07:57:18;101800.56;;;2.53;66.44
49945;BME280;35838;49.134;9.212;2023-02-11T07:58:51;101796.41;;;2.55;66.61
49945;BME280;35838;49.134;9.212;2023-02-11T08:00:26;101809.03;;;2.51;66.24
49945;BME280;35838;49.134;9.212;2023-02-11T08:02:02;101796.25;;;2.66;65.96
49945;BME280;35838;49.134;9.212;2023-02-11T08:03:36;101801.50;;;2.68;65.82
49945;BME280;35838;49.134;9.212;2023-02-11T08:05:10;101801.75;;;2.73;65.72
49945;BME280;35838;49.134;9.212;2023-02-11T08:06:44;101811.28;;;2.60;66.00
49945;BME280;35838;49.134;9.212;2023-02-11T08:08:18;101805.78;;;2.69;65.86
49945;BME280;35838;49.134;9.212;2023-02-11T08:09:51;101802.81;;;2.61;66.13
49945;BME280;35838;49.134;9.212;2023-02-11T08:11:26;101799.34;;;2.76;65.87
49945;BME280;35838;49.134;9.212;2023-02-11T08:13:00;101799.47;;;2.77;65.60
49945;BME280;35838;49.134;9.212;2023-02-11T08:14:33;101796.06;;;2.78;65.61
49945;BME280;35838;49.134;9.212;2023-02-11T08:16:07;101795.41;;;2.81;65.50
49945;BME280;35838;49.134;9.212;2023-02-11T08:17:43;101789.47;;;2.82;65.59
49945;BME280;35838;49.134;9.212;2023-02-11T08:19:17;101785.41;;;2.86;65.46
49945;BME280;35838;49.134;9.212;2023-02-11T08:20:50;101790.53;;;2.86;65.43
49945;BME280;35838;49.134;9.212;2023-02-11T08:22:24;101793.50;;;2.93;65.32